createdAt,value
2023-06-25T00:00:33.013Z,27.66
2023-06-25T00:03:06.275Z,27.65
2023-06-25T00:05:39.038Z,27.65
2023-06-25T00:08:12.104Z,27.64
2023-06-25T00:10:45.296Z,27.63
2023-06-25T00:13:19.170Z,27.63
2023-06-25T00:15:51.877Z,27.61
2023-06-25T00:18:25.035Z,27.61
2023-06-25T00:20:57.749Z,27.60
2023-06-25T00:23:31.048Z,27.60
2023-06-25T00:26:04.065Z,27.59
2023-06-25T00:28:37.221Z,27.58
2023-06-25T00:31:11.314Z,27.58
2023-06-25T00:33:45.174Z,27.57
2023-06-25T00:36:17.944Z,27.57
2023-06-25T00:38:51.130Z,27.56
2023-06-25T00:41:24.144Z,27.56
2023-06-25T00:43:57.070Z,27.55
2023-06-25T00:46:30.072Z,27.55
2023-06-25T00:49:02.875Z,27.54
2023-06-25T00:51:36.072Z,27.54
2023-06-25T00:54:09.185Z,27.53
2023-06-25T00:56:42.165Z,27.53
2023-06-25T00:59:14.847Z,27.52
2023-06-25T01:01:48.072Z,27.52
2023-06-25T01:04:21.209Z,27.51
2023-06-25T01:06:54.255Z,27.51
2023-06-25T01:09:27.302Z,27.51
2023-06-25T01:12:00.842Z,27.50
2023-06-25T01:14:34.135Z,27.49
2023-06-25T01:17:07.192Z,27.49
2023-06-25T01:19:40.369Z,27.48
2023-06-25T01:22:14.199Z,27.48
2023-06-25T01:24:47.238Z,27.47
2023-06-25T01:27:34.085Z,27.46
2023-06-25T01:30:07.260Z,27.46
2023-06-25T01:32:40.261Z,27.45
2023-06-25T01:35:13.364Z,27.45
2023-06-25T01:37:47.183Z,27.44
2023-06-25T01:40:20.309Z,27.44
2023-06-25T01:42:53.217Z,27.43
2023-06-25T01:45:26.194Z,27.43
2023-06-25T01:47:59.387Z,27.42
2023-06-25T01:50:33.151Z,27.42
2023-06-25T01:53:06.278Z,27.41
2023-06-25T01:55:39.746Z,27.41
2023-06-25T01:58:13.384Z,27.41
2023-06-25T02:00:46.317Z,27.40
2023-06-25T02:03:19.364Z,27.40
2023-06-25T02:05:52.328Z,27.39
2023-06-25T02:08:25.428Z,27.39
2023-06-25T02:10:59.207Z,27.38
2023-06-25T02:13:32.194Z,27.38
2023-06-25T02:16:04.971Z,27.37
2023-06-25T02:18:38.230Z,27.36
2023-06-25T02:21:11.235Z,27.36
2023-06-25T02:23:44.486Z,27.35
2023-06-25T02:26:18.278Z,27.35
2023-06-25T02:28:51.274Z,27.34
2023-06-25T02:31:24.521Z,27.34
2023-06-25T02:33:58.237Z,27.33
2023-06-25T02:36:31.330Z,27.33
2023-06-25T02:39:04.211Z,27.33
2023-06-25T02:41:36.945Z,27.32
2023-06-25T02:44:10.263Z,27.32
2023-06-25T02:46:43.328Z,27.31
2023-06-25T02:49:16.519Z,27.31
2023-06-25T02:51:50.337Z,27.30
2023-06-25T02:54:23.599Z,27.30
2023-06-25T02:56:57.237Z,27.29
2023-06-25T02:59:30.362Z,27.29
2023-06-25T03:02:03.117Z,27.28
2023-06-25T03:04:36.254Z,27.28
2023-06-25T03:07:09.374Z,27.27
2023-06-25T03:09:42.029Z,27.27
2023-06-25T03:12:15.289Z,27.26
2023-06-25T03:14:48.365Z,27.26
2023-06-25T03:17:21.455Z,27.25
2023-06-25T03:19:54.408Z,27.25
2023-06-25T03:22:27.324Z,27.24
2023-06-25T03:25:00.046Z,27.24
2023-06-25T03:27:33.478Z,27.23
2023-06-25T03:30:07.420Z,27.22
2023-06-25T03:32:40.325Z,27.22
2023-06-25T03:35:13.453Z,27.22
2023-06-25T03:37:46.435Z,27.21
2023-06-25T03:40:19.166Z,27.20
2023-06-25T03:42:52.511Z,27.20
2023-06-25T03:45:26.470Z,27.20
2023-06-25T03:47:59.389Z,27.19
2023-06-25T03:50:32.538Z,27.19
2023-06-25T03:53:06.418Z,27.18
2023-06-25T03:55:39.574Z,27.18
2023-06-25T03:58:12.416Z,27.18
2023-06-25T04:00:51.355Z,27.17
2023-06-25T04:03:24.508Z,27.17
2023-06-25T04:05:57.354Z,27.16
2023-06-25T04:08:30.339Z,27.16
2023-06-25T04:11:03.502Z,27.15
2023-06-25T04:13:36.370Z,27.15
2023-06-25T04:16:09.487Z,27.15
2023-06-25T04:18:42.389Z,27.14
2023-06-25T04:21:15.388Z,27.14
2023-06-25T04:23:48.403Z,27.13
2023-06-25T04:26:27.469Z,27.13
2023-06-25T04:29:00.621Z,27.13
2023-06-25T04:31:34.606Z,27.12
2023-06-25T04:34:08.459Z,27.12
2023-06-25T04:36:41.144Z,27.11
2023-06-25T04:39:14.508Z,27.11
2023-06-25T04:41:47.497Z,27.11
2023-06-25T04:44:20.440Z,27.10
2023-06-25T04:46:53.265Z,27.10
2023-06-25T04:49:26.288Z,27.10
2023-06-25T04:51:59.537Z,27.09
2023-06-25T04:54:32.140Z,27.09
2023-06-25T04:57:05.451Z,27.09
2023-06-25T04:59:52.454Z,27.09
2023-06-25T05:02:25.596Z,27.08
2023-06-25T05:04:58.180Z,27.08
2023-06-25T05:07:31.516Z,27.08
2023-06-25T05:10:04.180Z,27.08
2023-06-25T05:12:37.579Z,27.08
2023-06-25T05:15:10.474Z,27.07
2023-06-25T05:17:43.568Z,27.07
2023-06-25T05:20:16.535Z,27.07
2023-06-25T05:22:49.526Z,27.06
2023-06-25T05:25:22.574Z,27.06
2023-06-25T05:27:55.455Z,27.06
2023-06-25T05:30:28.540Z,27.06
2023-06-25T05:33:01.755Z,27.06
2023-06-25T05:35:34.794Z,27.06
2023-06-25T05:38:07.271Z,27.06
2023-06-25T05:40:40.491Z,27.06
2023-06-25T05:43:13.558Z,27.06
2023-06-25T05:45:46.482Z,27.06
2023-06-25T05:48:19.635Z,27.05
2023-06-25T05:50:52.497Z,27.05
2023-06-25T05:53:25.337Z,27.05
2023-06-25T05:55:58.511Z,27.05
2023-06-25T05:58:31.605Z,27.05
2023-06-25T06:01:04.406Z,27.05
2023-06-25T06:03:37.402Z,27.05
2023-06-25T06:06:10.601Z,27.05
2023-06-25T06:08:43.490Z,27.05
2023-06-25T06:11:16.360Z,27.05
2023-06-25T06:13:49.521Z,27.05
2023-06-25T06:16:22.405Z,27.05
2023-06-25T06:18:55.317Z,27.05
2023-06-25T06:21:28.646Z,27.05
2023-06-25T06:24:01.417Z,27.06
2023-06-25T06:26:34.368Z,27.06
2023-06-25T06:29:07.422Z,27.06
2023-06-25T06:31:40.435Z,27.06
2023-06-25T06:34:13.307Z,27.07
2023-06-25T06:36:46.308Z,27.07
2023-06-25T06:39:19.519Z,27.07
2023-06-25T06:41:52.315Z,27.07
2023-06-25T06:44:25.311Z,27.07
2023-06-25T06:47:04.223Z,27.08
2023-06-25T06:49:37.556Z,27.08
2023-06-25T06:52:10.474Z,27.08
2023-06-25T06:54:43.321Z,27.08
2023-06-25T06:57:22.387Z,27.08
2023-06-25T06:59:55.322Z,27.09
2023-06-25T07:02:28.533Z,27.09
2023-06-25T07:05:01.378Z,27.09
2023-06-25T07:07:34.549Z,27.09
2023-06-25T07:10:07.470Z,27.10
2023-06-25T07:12:40.456Z,27.10
2023-06-25T07:15:13.447Z,27.10
2023-06-25T07:17:46.400Z,27.10
2023-06-25T07:20:19.459Z,27.11
2023-06-25T07:22:52.358Z,27.11
2023-06-25T07:25:25.548Z,27.11
2023-06-25T07:28:12.429Z,27.12
2023-06-25T07:30:45.386Z,27.12
2023-06-25T07:33:18.484Z,27.13
2023-06-25T07:35:51.409Z,27.13
2023-06-25T07:38:24.494Z,27.13
2023-06-25T07:40:57.479Z,27.13
2023-06-25T07:43:30.498Z,27.14
2023-06-25T07:46:03.552Z,27.14
2023-06-25T07:48:36.560Z,27.14
2023-06-25T07:51:09.442Z,27.14
2023-06-25T07:53:42.571Z,27.15
2023-06-25T07:56:15.602Z,27.15
2023-06-25T07:59:02.478Z,27.15
2023-06-25T08:01:35.594Z,27.15
2023-06-25T08:04:08.861Z,27.15
2023-06-25T08:06:41.790Z,27.16
2023-06-25T08:09:14.515Z,27.16
2023-06-25T08:11:47.442Z,27.17
2023-06-25T08:14:20.727Z,27.17
2023-06-25T08:16:53.475Z,27.17
2023-06-25T08:19:26.474Z,27.18
2023-06-25T08:21:59.616Z,27.18
2023-06-25T08:24:32.681Z,27.18
2023-06-25T08:27:05.565Z,27.19
2023-06-25T08:29:38.611Z,27.19
2023-06-25T08:32:11.800Z,27.19
2023-06-25T08:34:44.616Z,27.19
2023-06-25T08:37:18.943Z,27.20
2023-06-25T08:39:50.450Z,27.20
2023-06-25T08:42:23.688Z,27.20
2023-06-25T08:44:56.466Z,27.21
2023-06-25T08:47:29.801Z,27.21
2023-06-25T08:50:02.739Z,27.21
2023-06-25T08:52:35.653Z,27.22
2023-06-25T08:55:08.486Z,27.22
2023-06-25T08:57:41.510Z,27.23
2023-06-25T09:00:14.510Z,27.23
2023-06-25T09:02:47.600Z,27.23
2023-06-25T09:05:20.618Z,27.23
2023-06-25T09:07:53.562Z,27.24
2023-06-25T09:10:26.623Z,27.24
2023-06-25T09:12:59.713Z,27.24
2023-06-25T09:15:32.624Z,27.25
2023-06-25T09:18:05.750Z,27.25
2023-06-25T09:20:38.829Z,27.25
2023-06-25T09:23:11.580Z,27.26
2023-06-25T09:25:44.669Z,27.27
2023-06-25T09:28:17.648Z,27.28
2023-06-25T09:30:50.551Z,27.30
2023-06-25T09:33:23.661Z,27.32
2023-06-25T09:35:56.531Z,27.33
2023-06-25T09:38:29.848Z,27.35
2023-06-25T09:41:02.659Z,27.36
2023-06-25T09:43:35.921Z,27.38
2023-06-25T09:46:08.690Z,27.39
2023-06-25T09:48:41.787Z,27.41
2023-06-25T09:51:14.684Z,27.42
2023-06-25T09:53:47.718Z,27.43
2023-06-25T09:56:20.563Z,27.45
2023-06-25T09:58:53.672Z,27.46
2023-06-25T10:01:27.213Z,27.47
2023-06-25T10:04:00.966Z,27.49
2023-06-25T10:06:33.597Z,27.50
2023-06-25T10:09:06.956Z,27.51
2023-06-25T10:11:39.957Z,27.52
2023-06-25T10:14:12.936Z,27.54
2023-06-25T10:16:45.932Z,27.55
2023-06-25T10:19:18.809Z,27.56
2023-06-25T10:21:51.757Z,27.57
2023-06-25T10:24:24.797Z,27.58
2023-06-25T10:26:57.622Z,27.59
2023-06-25T10:29:30.735Z,27.60
2023-06-25T10:32:03.790Z,27.62
2023-06-25T10:34:36.769Z,27.63
2023-06-25T10:37:09.964Z,27.64
2023-06-25T10:39:42.812Z,27.65
2023-06-25T10:42:15.741Z,27.66
2023-06-25T10:44:48.984Z,27.67
2023-06-25T10:47:21.679Z,27.68
2023-06-25T10:49:54.776Z,27.70
2023-06-25T10:52:27.993Z,27.71
2023-06-25T10:55:00.699Z,27.72
2023-06-25T10:57:33.751Z,27.73
2023-06-25T11:00:06.890Z,27.74
2023-06-25T11:02:39.881Z,27.75
2023-06-25T11:05:12.837Z,27.76
2023-06-25T11:07:45.816Z,27.77
2023-06-25T11:10:18.759Z,27.78
2023-06-25T11:12:51.984Z,27.79
2023-06-25T11:15:25.077Z,27.80
2023-06-25T11:17:57.706Z,27.81
2023-06-25T11:20:31.168Z,27.82
2023-06-25T11:23:03.693Z,27.83
2023-06-25T11:25:37.246Z,27.84
2023-06-25T11:28:23.628Z,27.85
2023-06-25T11:30:56.996Z,27.86
2023-06-25T11:33:30.034Z,27.87
2023-06-25T11:36:02.700Z,27.88
2023-06-25T11:38:35.832Z,27.89
2023-06-25T11:41:23.117Z,27.90
2023-06-25T11:43:56.049Z,27.91
2023-06-25T11:46:28.999Z,27.92
2023-06-25T11:49:01.729Z,27.93
2023-06-25T11:51:35.029Z,27.94
2023-06-25T11:54:07.997Z,27.95
2023-06-25T11:56:41.144Z,27.96
2023-06-25T11:59:13.898Z,27.97
2023-06-25T12:01:47.151Z,27.97
2023-06-25T12:04:20.059Z,27.98
2023-06-25T12:06:52.771Z,27.99
2023-06-25T12:09:26.061Z,28.00
2023-06-25T12:11:59.065Z,28.01
2023-06-25T12:14:32.156Z,28.02
2023-06-25T12:17:05.062Z,28.03
2023-06-25T12:19:38.153Z,28.04
2023-06-25T12:22:10.774Z,28.05
2023-06-25T12:24:43.971Z,28.06
2023-06-25T12:27:16.912Z,28.07
2023-06-25T12:29:50.023Z,28.08
2023-06-25T12:32:23.327Z,28.09
2023-06-25T12:34:55.760Z,28.10
2023-06-25T12:37:29.040Z,28.11
2023-06-25T12:40:01.802Z,28.12
2023-06-25T12:42:35.174Z,28.13
2023-06-25T12:45:08.222Z,28.14
2023-06-25T12:47:41.179Z,28.14
2023-06-25T12:50:17.191Z,28.15
2023-06-25T12:52:49.806Z,28.16
2023-06-25T12:55:23.015Z,28.17
2023-06-25T12:57:55.993Z,28.18
2023-06-25T13:00:41.165Z,28.19
2023-06-25T13:03:01.944Z,28.20
2023-06-25T13:05:35.424Z,28.21
2023-06-25T13:08:22.140Z,28.22
2023-06-25T13:10:54.838Z,28.22
2023-06-25T13:13:28.148Z,28.22
2023-06-25T13:16:00.966Z,28.22
2023-06-25T13:18:34.006Z,28.22
2023-06-25T13:21:06.856Z,28.22
2023-06-25T13:23:40.115Z,28.22
2023-06-25T13:26:13.077Z,28.21
2023-06-25T13:28:46.216Z,28.21
2023-06-25T13:31:18.930Z,28.21
2023-06-25T13:33:52.079Z,28.20
2023-06-25T13:36:25.056Z,28.20
2023-06-25T13:38:58.200Z,28.19
2023-06-25T13:41:30.987Z,28.19
2023-06-25T13:44:04.199Z,28.19
2023-06-25T13:46:37.399Z,28.18
2023-06-25T13:49:11.170Z,28.18
2023-06-25T13:51:44.441Z,28.18
2023-06-25T13:54:18.186Z,28.17
2023-06-25T13:56:50.934Z,28.17
2023-06-25T13:59:24.161Z,28.17
2023-06-25T14:04:47.215Z,28.17
2023-06-25T14:07:19.917Z,28.16
2023-06-25T14:09:53.087Z,28.16
2023-06-25T14:12:25.935Z,28.16
2023-06-25T14:14:58.965Z,28.16
2023-06-25T14:17:31.998Z,28.16
2023-06-25T14:20:04.966Z,28.15
2023-06-25T14:22:37.941Z,28.15
2023-06-25T14:25:11.149Z,28.15
2023-06-25T14:27:44.097Z,28.15
2023-06-25T14:30:17.177Z,28.15
2023-06-25T14:32:49.976Z,28.15
2023-06-25T14:35:23.305Z,28.15
2023-06-25T14:37:55.977Z,28.15
2023-06-25T14:40:29.112Z,28.15
2023-06-25T14:43:02.008Z,28.15
2023-06-25T14:45:35.314Z,28.15
2023-06-25T14:48:08.239Z,28.15
2023-06-25T14:50:41.102Z,28.15
2023-06-25T14:53:13.987Z,28.15
2023-06-25T14:55:47.585Z,28.15
2023-06-25T14:58:20.173Z,28.15
2023-06-25T15:00:53.160Z,28.15
2023-06-25T15:03:29.689Z,28.15
2023-06-25T15:06:10.124Z,28.16
2023-06-25T15:08:32.134Z,28.16
2023-06-25T15:11:05.148Z,28.16
2023-06-25T15:13:38.160Z,28.17
2023-06-25T15:16:25.123Z,28.18
2023-06-25T15:18:58.232Z,28.20
2023-06-25T15:21:31.220Z,28.21
2023-06-25T15:24:04.025Z,28.23
2023-06-25T15:26:37.250Z,28.25
2023-06-25T15:29:10.025Z,28.27
2023-06-25T15:31:43.282Z,28.28
2023-06-25T15:34:16.052Z,28.31
2023-06-25T15:37:02.960Z,28.32
2023-06-25T15:39:36.176Z,28.34
2023-06-25T15:42:09.086Z,28.36
2023-06-25T15:44:42.239Z,28.39
2023-06-25T15:47:15.086Z,28.41
2023-06-25T15:49:48.345Z,28.43
2023-06-25T15:52:21.358Z,28.45
2023-06-25T15:54:54.364Z,28.47
2023-06-25T15:57:27.287Z,28.49
2023-06-25T16:00:00.515Z,28.51
2023-06-25T16:02:34.493Z,28.52
2023-06-25T16:05:07.398Z,28.54
2023-06-25T16:07:40.504Z,28.55
2023-06-25T16:10:13.070Z,28.56
2023-06-25T16:12:46.159Z,28.57
2023-06-25T16:15:19.093Z,28.57
2023-06-25T16:17:52.187Z,28.58
2023-06-25T16:20:25.424Z,28.58
2023-06-25T16:22:58.357Z,28.59
2023-06-25T16:25:31.220Z,28.60
2023-06-25T16:28:04.390Z,28.60
2023-06-25T16:30:37.436Z,28.61
2023-06-25T16:33:10.153Z,28.62
2023-06-25T16:35:43.966Z,28.63
2023-06-25T16:38:17.144Z,28.64
2023-06-25T16:40:50.516Z,28.65
2023-06-25T16:43:23.570Z,28.67
2023-06-25T16:45:56.520Z,28.68
2023-06-25T16:48:29.288Z,28.70
2023-06-25T16:51:02.150Z,28.71
2023-06-25T16:53:35.175Z,28.73
2023-06-25T16:56:08.282Z,28.75
2023-06-25T16:58:41.466Z,28.77
2023-06-25T17:01:14.455Z,28.78
2023-06-25T17:03:47.458Z,28.80
2023-06-25T17:06:20.286Z,28.81
2023-06-25T17:08:53.466Z,28.83
2023-06-25T17:11:26.372Z,28.84
2023-06-25T17:13:59.491Z,28.86
2023-06-25T17:16:32.524Z,28.88
2023-06-25T17:19:05.730Z,28.89
2023-06-25T17:21:39.574Z,28.91
2023-06-25T17:24:12.457Z,28.92
2023-06-25T17:26:45.462Z,28.94
2023-06-25T17:29:18.447Z,28.96
2023-06-25T17:31:51.559Z,28.97
2023-06-25T17:34:24.606Z,28.98
2023-06-25T17:36:57.495Z,29.00
2023-06-25T17:39:30.463Z,29.01
2023-06-25T17:42:03.205Z,29.02
2023-06-25T17:44:36.563Z,29.04
2023-06-25T17:47:10.215Z,29.05
2023-06-25T17:49:43.435Z,29.06
2023-06-25T17:52:16.268Z,29.07
2023-06-25T17:54:49.462Z,29.08
2023-06-25T17:57:22.251Z,29.10
2023-06-25T17:59:55.237Z,29.11
2023-06-25T18:02:28.609Z,29.13
2023-06-25T18:05:02.384Z,29.14
2023-06-25T18:07:34.347Z,29.15
2023-06-25T18:10:07.617Z,29.16
2023-06-25T18:12:40.283Z,29.17
2023-06-25T18:15:13.264Z,29.18
2023-06-25T18:17:47.084Z,29.19
2023-06-25T18:20:25.650Z,29.20
2023-06-25T18:22:58.605Z,29.21
2023-06-25T18:25:31.590Z,29.22
2023-06-25T18:28:04.580Z,29.23
2023-06-25T18:30:38.157Z,29.23
2023-06-25T18:33:13.192Z,29.24
2023-06-25T18:35:43.747Z,29.25
2023-06-25T18:38:16.294Z,29.26
2023-06-25T18:40:49.840Z,29.26
2023-06-25T18:43:23.632Z,29.27
2023-06-25T18:45:56.602Z,29.27
2023-06-25T18:48:29.452Z,29.28
2023-06-25T18:51:02.651Z,29.29
2023-06-25T18:53:35.414Z,29.29
2023-06-25T18:56:08.678Z,29.29
2023-06-25T18:58:41.517Z,29.29
2023-06-25T19:01:14.545Z,29.29
2023-06-25T19:03:47.493Z,29.29
2023-06-25T19:06:20.357Z,29.29
2023-06-25T19:08:53.576Z,29.30
2023-06-25T19:11:26.546Z,29.30
2023-06-25T19:13:59.453Z,29.30
2023-06-25T19:16:32.529Z,29.30
2023-06-25T19:19:05.457Z,29.30
2023-06-25T19:21:38.691Z,29.31
2023-06-25T19:24:11.355Z,29.31
2023-06-25T19:26:44.458Z,29.30
2023-06-25T19:29:17.352Z,29.30
2023-06-25T19:31:50.658Z,29.30
2023-06-25T19:34:23.517Z,29.29
2023-06-25T19:36:56.726Z,29.29
2023-06-25T19:39:29.457Z,29.28
2023-06-25T19:42:02.981Z,29.28
2023-06-25T19:44:36.883Z,29.28
2023-06-25T19:47:10.572Z,29.27
2023-06-25T19:49:43.734Z,29.27
2023-06-25T19:52:16.680Z,29.26
2023-06-25T19:54:49.571Z,29.26
2023-06-25T19:57:24.434Z,29.25
2023-06-25T19:59:57.891Z,29.25
2023-06-25T20:02:31.770Z,29.24
2023-06-25T20:05:04.743Z,29.24
2023-06-25T20:07:37.901Z,29.23
2023-06-25T20:10:10.429Z,29.23
2023-06-25T20:12:43.849Z,29.22
2023-06-25T20:15:16.461Z,29.22
2023-06-25T20:17:49.775Z,29.21
2023-06-25T20:20:22.553Z,29.20
2023-06-25T20:22:55.482Z,29.19
2023-06-25T20:25:28.577Z,29.17
2023-06-25T20:28:01.702Z,29.16
2023-06-25T20:30:35.152Z,29.15
2023-06-25T20:33:08.838Z,29.14
2023-06-25T20:35:41.894Z,29.13
2023-06-25T20:38:14.771Z,29.12
2023-06-25T20:40:47.744Z,29.10
2023-06-25T20:43:20.476Z,29.09
2023-06-25T20:45:53.605Z,29.08
2023-06-25T20:48:26.806Z,29.06
2023-06-25T20:50:59.729Z,29.05
2023-06-25T20:53:33.006Z,29.03
2023-06-25T20:56:06.519Z,29.01
2023-06-25T20:58:39.703Z,28.99
2023-06-25T21:01:12.629Z,28.97
2023-06-25T21:03:45.643Z,28.95
2023-06-25T21:06:18.598Z,28.93
2023-06-25T21:08:51.515Z,28.92
2023-06-25T21:11:24.692Z,28.90
2023-06-25T21:13:57.512Z,28.89
2023-06-25T21:16:30.736Z,28.87
2023-06-25T21:19:03.520Z,28.85
2023-06-25T21:21:36.886Z,28.84
2023-06-25T21:24:09.844Z,28.82
2023-06-25T21:26:56.814Z,28.80
2023-06-25T21:29:29.864Z,28.78
2023-06-25T21:32:02.806Z,28.76
2023-06-25T21:34:36.007Z,28.74
2023-06-25T21:37:09.852Z,28.73
2023-06-25T21:39:43.076Z,28.71
2023-06-25T21:42:17.831Z,28.69
2023-06-25T21:44:50.946Z,28.68
2023-06-25T21:47:23.974Z,28.67
2023-06-25T21:49:56.828Z,28.65
2023-06-25T21:52:30.131Z,28.64
2023-06-25T21:55:04.090Z,28.62
2023-06-25T21:57:37.978Z,28.60
2023-06-25T22:00:14.692Z,28.59
2023-06-25T22:02:48.133Z,28.58
2023-06-25T22:05:20.965Z,28.56
2023-06-25T22:07:54.070Z,28.55
2023-06-25T22:10:28.032Z,28.53
2023-06-25T22:13:01.008Z,28.52
2023-06-25T22:15:34.105Z,28.51
2023-06-25T22:18:07.993Z,28.49
2023-06-25T22:20:41.059Z,28.48
2023-06-25T22:23:14.920Z,28.46
2023-06-25T22:25:47.970Z,28.45
2023-06-25T22:28:21.034Z,28.43
2023-06-25T22:30:53.878Z,28.43
2023-06-25T22:33:27.221Z,28.41
2023-06-25T22:36:01.105Z,28.40
2023-06-25T22:38:34.968Z,28.39
2023-06-25T22:41:08.045Z,28.39
2023-06-25T22:43:40.983Z,28.38
2023-06-25T22:46:13.983Z,28.36
2023-06-25T22:48:47.098Z,28.35
2023-06-25T22:51:19.935Z,28.34
2023-06-25T22:53:53.050Z,28.33
2023-06-25T22:56:26.037Z,28.32
2023-06-25T22:58:59.113Z,28.31
2023-06-25T23:01:33.063Z,28.30
2023-06-25T23:04:06.300Z,28.29
2023-06-25T23:06:40.070Z,28.27
2023-06-25T23:09:12.945Z,28.26
2023-06-25T23:11:46.056Z,28.25
2023-06-25T23:14:18.944Z,28.24
2023-06-25T23:16:51.969Z,28.23
2023-06-25T23:19:25.087Z,28.22
2023-06-25T23:21:58.017Z,28.21
2023-06-25T23:24:31.030Z,28.20
2023-06-25T23:27:04.032Z,28.19
2023-06-25T23:29:37.173Z,28.18
2023-06-25T23:32:10.982Z,28.17
2023-06-25T23:34:44.188Z,28.17
2023-06-25T23:37:17.995Z,28.16
2023-06-25T23:39:51.069Z,28.16
2023-06-25T23:42:24.083Z,28.15
2023-06-25T23:44:56.897Z,28.14
2023-06-25T23:47:33.904Z,28.13
2023-06-25T23:50:07.193Z,28.12
2023-06-25T23:52:40.043Z,28.11
2023-06-25T23:55:13.057Z,28.10
2023-06-25T23:57:46.102Z,28.09
